Startpagina
METAR-TAF:

METAR-TAF

Vliegvelden :

Zielona Góra, Polen

breedte: 52-08-19N, lengte: 015-47-55E, hoogte: 59 m

Actueel weer

Dit bericht is 3 uur en het 25 minuten geleden gemaakt, om 20:00 UTC
Wind 7 kt uit het noordnoordoosten
Temperatuur 17°C
Vochtigheid 39%
Druk 1020 hPa
Zicht 10 km of meer
geen wolken onder 1500 m en geen cumulonimbus

METAR: EPZG 312000Z 03007KT CAVOK 17/03 Q1020

Tijdstip: 01:25 (23:25 UTC)

Verwachting

Dit bericht is 2 uur en het 55 minuten geleden gemaakt, om 20:30 UTC
Verwachting geldig van 31 om 21 UTC tot 01 om 06 UTC
Wind 7 kt uit het noordnoordoosten
Zicht 10 km of meer
geen wolken onder 1500 m en geen cumulonimbus

TAF: EPZG 312030Z 3121/0106 03007KT CAVOK

Waarnemingen en weersverwachtingen van meer dan 4000 vliegvelden (METAR en TAF).

De beschikbare stations zijn de gele en rode punten op de kaart.

Ga met uw muis naar het station om de naam te zien.

Klik dan om waarnemingen en weersverwachtingen te zien.

kaart wijzigen: klik op de groene knoppen met een zwart kruis om in te zoomen, op de groene knop met een streepje om uit te zoomen of op de groene pijlen voor aangrenzende kaarten.


METAR-TAF: